Time;durP1;ratioP1;P1;durP2;ratioP2;P2;SDS_P1;SDS_P2;PMS_P1;PMS_P2;Temp;Humidity;BMP_temperature;BMP_pressure;BME280_temperature;BME280_humidity;BME280_pressure;Samples;Min_cycle;Max_cycle;Signal;HPM_P1;HPM_P2
2022/04/12 00:00:27;;;;;;;2.50;2.30;;;;;;;3.57;66.57;96797.13;1645504;87;21048;-80
2022/04/12 00:02:55;;;;;;;4.12;2.70;;;;;;;3.55;66.27;96790.49;1643505;86;21008;-80
2022/04/12 00:05:21;;;;;;;4.28;3.05;;;;;;;3.51;66.41;96796.37;1643846;87;20976;-80
2022/04/12 00:07:46;;;;;;;4.20;3.22;;;;;;;3.49;66.37;96797.44;1647770;87;21040;-80
2022/04/12 00:10:12;;;;;;;4.70;2.75;;;;;;;3.46;66.29;96791.28;1649631;87;21033;-80
2022/04/12 00:12:38;;;;;;;4.37;2.95;;;;;;;3.41;66.08;96781.36;1644674;87;21020;-79
2022/04/12 00:15:05;;;;;;;3.87;2.80;;;;;;;3.38;65.81;96784.66;1643689;87;21367;-80
2022/04/12 00:20:16;;;;;;;4.97;3.00;;;;;;;3.31;65.97;96775.38;1654537;87;21050;-80
2022/04/12 00:22:42;;;;;;;3.67;2.90;;;;;;;3.26;65.72;96777.52;1633194;87;21026;-80
2022/04/12 00:25:10;;;;;;;3.90;2.95;;;;;;;3.20;65.90;96777.54;1634165;87;20970;-80
2022/04/12 00:27:38;;;;;;;5.05;3.15;;;;;;;3.16;65.59;96779.20;1654611;87;21017;-80
2022/04/12 00:30:06;;;;;;;5.05;3.00;;;;;;;3.11;65.66;96780.06;1638748;87;21051;-80
2022/04/12 00:32:32;;;;;;;7.22;3.00;;;;;;;3.07;65.82;96785.08;1633159;87;21580;-80
2022/04/12 00:34:57;;;;;;;5.83;3.02;;;;;;;2.99;66.05;96778.83;1626554;87;21005;-80
2022/04/12 00:37:23;;;;;;;4.53;3.55;;;;;;;2.96;65.85;96780.38;1626429;87;20986;-80
2022/04/12 00:39:49;;;;;;;4.12;3.40;;;;;;;2.92;66.03;96770.45;1626497;87;21002;-80
2022/04/12 00:42:14;;;;;;;5.92;3.77;;;;;;;2.87;66.27;96771.31;1626687;88;21361;-80
2022/04/12 00:44:40;;;;;;;4.67;3.40;;;;;;;2.83;66.28;96767.38;1626383;87;21006;-81
2022/04/12 00:47:06;;;;;;;4.55;3.27;;;;;;;2.79;66.30;96764.25;1617392;89;21054;-80
2022/04/12 00:49:32;;;;;;;3.60;3.30;;;;;;;2.76;66.37;96764.94;1634054;86;21041;-80
2022/04/12 00:51:58;;;;;;;8.25;3.75;;;;;;;2.73;66.21;96766.47;1637258;87;21021;-80
2022/04/12 00:54:24;;;;;;;3.55;3.02;;;;;;;2.69;66.25;96771.05;1639715;87;21002;-80
2022/04/12 00:56:51;;;;;;;5.67;3.42;;;;;;;2.67;66.18;96769.08;1617308;89;21070;-80
2022/04/12 00:59:18;;;;;;;4.28;3.05;;;;;;;2.64;66.02;96766.77;1617240;87;21334;-80
2022/04/12 01:01:44;;;;;;;4.83;3.40;;;;;;;2.60;66.20;96767.48;1636164;87;21023;-80
2022/04/12 01:04:09;;;;;;;4.37;3.50;;;;;;;2.57;66.23;96770.73;1644839;87;21007;-80
2022/04/12 01:06:37;;;;;;;4.70;3.50;;;;;;;2.51;66.33;96777.18;1644967;87;21022;-80
2022/04/12 01:09:05;;;;;;;6.20;3.90;;;;;;;2.46;66.39;96769.05;1644921;87;21050;-80
2022/04/12 01:11:33;;;;;;;6.08;3.60;;;;;;;2.44;66.45;96772.64;1644702;87;21010;-80
2022/04/12 01:14:00;;;;;;;4.50;3.77;;;;;;;2.41;66.48;96773.70;1644935;87;20979;-81
2022/04/12 01:16:25;;;;;;;3.92;3.15;;;;;;;2.37;66.54;96775.70;1644979;87;20951;-80
2022/04/12 01:18:51;;;;;;;6.12;3.87;;;;;;;2.34;66.66;96773.86;1644801;87;21022;-80
2022/04/12 01:21:17;;;;;;;4.62;3.77;;;;;;;2.32;66.61;96780.39;1644575;87;21094;-80
2022/04/12 01:24:03;;;;;;;4.33;3.50;;;;;;;2.31;66.75;96786.45;1635126;87;21018;-80
2022/04/12 01:26:29;;;;;;;5.75;3.70;;;;;;;2.30;66.88;96786.11;1628117;87;21044;-80
2022/04/12 01:28:56;;;;;;;7.53;4.17;;;;;;;2.28;66.81;96784.14;1618746;87;21052;-80
2022/04/12 01:31:24;;;;;;;6.20;3.98;;;;;;;2.25;66.91;96784.83;1621595;87;21018;-80
2022/04/12 01:33:51;;;;;;;4.80;4.00;;;;;;;2.23;66.80;96799.52;1617250;87;21094;-80
2022/04/12 01:36:18;;;;;;;5.97;3.80;;;;;;;2.23;66.77;96796.48;1617462;87;20986;-80
2022/04/12 01:38:44;;;;;;;4.80;3.60;;;;;;;2.22;67.02;96794.86;1619125;87;21090;-80
2022/04/12 01:41:09;;;;;;;5.20;3.70;;;;;;;2.20;67.08;96795.45;1618765;87;21079;-80
2022/04/12 01:43:35;;;;;;;5.40;4.05;;;;;;;2.20;67.03;96797.20;1618963;88;21534;-80
2022/04/12 01:46:01;;;;;;;5.17;3.70;;;;;;;2.20;67.11;96799.77;1619877;87;21087;-80
2022/04/12 01:48:26;;;;;;;7.00;3.87;;;;;;;2.18;66.95;96801.16;1628122;86;21098;-80
2022/04/12 01:50:52;;;;;;;5.17;3.52;;;;;;;2.18;66.84;96803.73;1647964;87;21019;-80
2022/04/12 01:53:18;;;;;;;4.55;4.10;;;;;;;2.16;67.18;96805.60;1647788;87;21039;-80
2022/04/12 01:55:44;;;;;;;5.78;3.58;;;;;;;2.14;67.08;96808.75;1627353;87;21015;-80
2022/04/12 01:58:09;;;;;;;6.05;4.28;;;;;;;2.12;67.17;96806.78;1620133;87;21037;-80
2022/04/12 02:00:36;;;;;;;5.15;4.08;;;;;;;2.09;67.11;96813.41;1621400;87;20984;-80
2022/04/12 02:03:03;;;;;;;6.28;3.95;;;;;;;2.08;67.07;96810.49;1620564;87;20994;-80
2022/04/12 02:05:29;;;;;;;6.50;3.35;;;;;;;2.07;67.00;96807.58;1620051;87;20963;-80
2022/04/12 02:07:55;;;;;;;6.35;3.60;;;;;;;2.05;67.19;96806.89;1620084;88;21420;-80
2022/04/12 02:10:22;;;;;;;3.50;3.20;;;;;;;2.03;67.21;96807.02;1619888;87;21070;-80
2022/04/12 02:12:49;;;;;;;4.50;3.50;;;;;;;2.03;67.18;96811.33;1619973;87;21059;-80
2022/04/12 02:15:16;;;;;;;4.47;3.60;;;;;;;2.01;67.51;96809.34;1619912;87;21113;-80
2022/04/12 02:17:41;;;;;;;5.25;4.75;;;;;;;2.00;67.47;96812.84;1619998;87;21134;-80
2022/04/12 02:20:08;;;;;;;3.90;3.40;;;;;;;2.00;67.36;96813.66;1619961;87;21440;-80
2022/04/12 02:22:37;;;;;;;5.62;3.45;;;;;;;1.99;67.13;96805.63;1619633;87;21074;-80
2022/04/12 02:25:04;;;;;;;6.22;3.80;;;;;;;1.99;67.24;96813.31;1619926;87;20987;-80
2022/04/12 02:27:30;;;;;;;4.65;3.80;;;;;;;1.98;67.26;96814.72;1619980;88;21346;-80
2022/04/12 02:29:56;;;;;;;3.72;3.30;;;;;;;1.95;67.27;96818.34;1619896;87;20971;-80
2022/04/12 02:32:22;;;;;;;4.55;4.15;;;;;;;1.96;67.37;96817.87;1623348;87;21058;-80
2022/04/12 02:34:48;;;;;;;6.60;3.62;;;;;;;1.96;67.33;96820.43;1619874;87;21102;-80
2022/04/12 02:37:14;;;;;;;3.90;3.12;;;;;;;1.96;67.33;96817.87;1620098;88;21377;-80
2022/04/12 02:39:40;;;;;;;5.12;3.35;;;;;;;1.95;67.23;96821.33;1635017;87;20999;-80
2022/04/12 02:42:06;;;;;;;4.65;3.65;;;;;;;1.95;67.25;96821.33;1647550;87;20955;-79
2022/04/12 02:44:32;;;;;;;4.78;3.87;;;;;;;1.96;67.36;96823.81;1647952;87;21023;-80
2022/04/12 02:46:57;;;;;;;5.62;3.47;;;;;;;1.94;67.01;96824.36;1645393;87;21054;-80
2022/04/12 02:49:23;;;;;;;4.25;3.47;;;;;;;1.95;67.16;96823.90;1644420;86;21027;-80
2022/04/12 02:51:51;;;;;;;6.85;3.72;;;;;;;1.94;67.45;96824.36;1644933;87;21022;-80
2022/04/12 02:54:16;;;;;;;5.25;3.40;;;;;;;1.93;67.55;96829.14;1644955;87;21076;-79
2022/04/12 02:56:42;;;;;;;3.42;3.02;;;;;;;1.93;67.37;96829.61;1634695;87;20989;-80
2022/04/12 02:59:08;;;;;;;3.52;3.10;;;;;;;1.92;67.35;96828.80;1617941;87;21398;-80
2022/04/12 03:01:34;;;;;;;4.58;3.67;;;;;;;1.92;67.30;96830.55;1623575;87;21046;-80
2022/04/12 03:04:00;;;;;;;4.65;4.00;;;;;;;1.92;67.34;96831.36;1617117;87;21115;-80
2022/04/12 03:06:26;;;;;;;4.40;3.90;;;;;;;1.92;67.23;96833.11;1617542;89;21373;-79
2022/04/12 03:08:52;;;;;;;4.97;3.98;;;;;;;1.91;67.41;96832.76;1617397;87;20978;-80
2022/04/12 03:11:17;;;;;;;4.70;3.30;;;;;;;1.90;67.37;96834.97;1617300;87;21021;-80
2022/04/12 03:13:43;;;;;;;4.50;3.65;;;;;;;1.90;67.28;96838.35;1617287;89;21000;-81
2022/04/12 03:16:09;;;;;;;4.92;3.08;;;;;;;1.89;67.20;96834.62;1619145;87;21035;-80
2022/04/12 03:18:35;;;;;;;5.08;3.00;;;;;;;1.89;67.25;96839.75;1615434;87;21412;-80
2022/04/12 03:21:01;;;;;;;8.48;3.60;;;;;;;1.87;67.32;96832.66;1613788;89;21070;-80
2022/04/12 03:23:27;;;;;;;4.50;2.60;;;;;;;1.86;67.17;96831.84;1615108;87;20976;-80
2022/04/12 03:25:52;;;;;;;5.17;3.83;;;;;;;1.86;67.21;96829.73;1618547;87;20984;-80
2022/04/12 03:28:18;;;;;;;3.83;2.92;;;;;;;1.84;67.24;96830.33;1618620;87;20969;-80
2022/04/12 03:30:44;;;;;;;5.20;2.92;;;;;;;1.82;67.40;96831.73;1619527;87;21362;-80
2022/04/12 03:33:10;;;;;;;4.72;3.17;;;;;;;1.79;67.38;96823.00;1621362;87;21385;-80
2022/04/12 03:35:35;;;;;;;5.65;3.02;;;;;;;1.79;67.29;96827.66;1617392;87;21057;-80
2022/04/12 03:38:01;;;;;;;4.47;3.02;;;;;;;1.78;67.28;96823.91;1617159;89;21075;-80
2022/04/12 03:40:32;;;;;;;3.67;2.98;;;;;;;1.77;67.28;96826.93;1617220;87;21094;-80
2022/04/12 03:43:00;;;;;;;3.30;3.00;;;;;;;1.77;67.31;96828.68;1617221;87;21030;-80
2022/04/12 03:45:26;;;;;;;4.53;3.12;;;;;;;1.76;67.20;96828.33;1640886;87;21401;-80
2022/04/12 03:47:52;;;;;;;4.80;3.08;;;;;;;1.75;67.39;96831.36;1654390;86;21050;-80
2022/04/12 03:50:17;;;;;;;4.03;3.20;;;;;;;1.74;67.40;96835.32;1654263;85;21009;-80
2022/04/12 03:52:43;;;;;;;4.25;2.95;;;;;;;1.73;67.39;96823.45;1654493;87;21054;-80
2022/04/12 03:55:10;;;;;;;3.37;3.00;;;;;;;1.72;67.34;96832.88;1654612;87;21089;-80
2022/04/12 03:57:36;;;;;;;6.42;2.85;;;;;;;1.73;67.33;96829.84;1654473;87;21046;-80
2022/04/12 04:00:08;;;;;;;3.50;2.67;;;;;;;1.73;67.51;96831.95;1654801;87;21121;-80
2022/04/12 04:02:37;;;;;;;3.40;3.10;;;;;;;1.73;67.36;96839.63;1645854;87;21005;-80
2022/04/12 04:05:04;;;;;;;4.40;3.02;;;;;;;1.72;67.54;96837.19;1654190;87;21026;-80
2022/04/12 04:07:29;;;;;;;5.10;2.58;;;;;;;1.72;67.51;96837.19;1654469;87;21003;-80
2022/04/12 04:09:55;;;;;;;4.00;2.92;;;;;;;1.70;67.46;96842.43;1643092;87;21022;-80
2022/04/12 04:12:22;;;;;;;3.90;2.62;;;;;;;1.71;67.56;96836.38;1626576;88;21006;-80
2022/04/12 04:14:49;;;;;;;3.30;3.00;;;;;;;1.71;67.51;96841.50;1626397;87;21010;-80
2022/04/12 04:17:16;;;;;;;3.50;2.52;;;;;;;1.71;67.74;96844.06;1626376;87;21026;-80
2022/04/12 04:19:41;;;;;;;5.53;3.00;;;;;;;1.71;67.79;96844.06;1638828;87;21031;-80
2022/04/12 04:22:07;;;;;;;6.12;3.00;;;;;;;1.72;68.02;96844.41;1629604;88;20945;-80
2022/04/12 04:24:33;;;;;;;2.62;2.42;;;;;;;1.71;67.99;96842.78;1654477;87;21369;-80
2022/04/12 04:26:59;;;;;;;6.17;3.95;;;;;;;1.72;68.06;96843.13;1629628;88;20922;-79
2022/04/12 04:29:27;;;;;;;3.95;2.58;;;;;;;1.73;68.10;96847.31;1654527;87;20974;-80
2022/04/12 04:31:52;;;;;;;2.77;2.50;;;;;;;1.75;68.26;96845.92;1653686;87;21396;-80
2022/04/12 04:34:18;;;;;;;4.17;2.77;;;;;;;1.76;68.46;96852.20;1629516;88;20970;-80
2022/04/12 04:36:43;;;;;;;6.03;2.80;;;;;;;1.81;68.46;96851.88;1635737;87;21020;-79
2022/04/12 04:39:09;;;;;;;3.45;2.47;;;;;;;1.84;68.54;96847.80;1627918;87;20982;-80
2022/04/12 04:41:35;;;;;;;4.42;2.70;;;;;;;1.87;68.41;96852.69;1626597;87;20982;-80
2022/04/12 04:44:01;;;;;;;3.75;2.80;;;;;;;1.92;68.56;96855.70;1627895;87;21003;-82
2022/04/12 04:46:28;;;;;;;3.08;2.33;;;;;;;1.96;68.72;96852.00;1644451;87;21016;-80
2022/04/12 04:48:53;;;;;;;3.58;2.50;;;;;;;2.00;68.69;96851.30;1646297;85;21072;-81
2022/04/12 04:51:20;;;;;;;2.20;2.02;;;;;;;2.04;68.61;96855.24;1655181;87;21357;-83
2022/04/12 04:53:49;;;;;;;3.40;2.52;;;;;;;2.08;68.74;96864.33;1628775;87;20981;-82
2022/04/12 04:56:13;;;;;;;5.28;2.50;;;;;;;2.10;68.68;96860.70;1626384;87;20973;-83
2022/04/12 04:58:39;;;;;;;3.77;2.30;;;;;;;2.13;68.67;96860.14;1626755;87;20993;-83
2022/04/12 05:01:04;;;;;;;3.52;2.22;;;;;;;2.15;68.33;96864.22;1646916;87;21032;-83
2022/04/12 05:03:30;;;;;;;3.70;2.40;;;;;;;2.17;68.30;96866.20;1637165;87;21346;-82
2022/04/12 05:05:56;;;;;;;2.62;2.15;;;;;;;2.19;68.26;96871.20;1641957;87;20938;-83
2022/04/12 05:08:22;;;;;;;4.37;3.05;;;;;;;2.20;68.19;96871.08;1621375;88;21026;-83
2022/04/12 05:10:48;;;;;;;4.25;2.27;;;;;;;2.22;68.21;96873.52;1592117;89;21514;-83
2022/04/12 05:13:13;;;;;;;2.83;2.17;;;;;;;2.25;68.42;96878.41;1650327;87;20946;-82
2022/04/12 05:15:39;;;;;;;3.77;2.30;;;;;;;2.28;68.26;96875.64;1636589;87;20994;-83
2022/04/12 05:18:05;;;;;;;4.15;2.33;;;;;;;2.30;68.31;96884.84;1625754;87;20954;-82
2022/04/12 05:20:31;;;;;;;3.10;2.22;;;;;;;2.33;68.35;96877.38;1637341;87;21490;-83
2022/04/12 05:22:57;;;;;;;2.27;2.05;;;;;;;2.36;68.42;96888.20;1640562;87;20961;-83
2022/04/12 05:25:23;;;;;;;2.87;1.90;;;;;;;2.39;68.60;96886.67;1624020;88;20965;-83
2022/04/12 05:27:49;;;;;;;3.02;2.60;;;;;;;2.45;68.89;96892.28;1639447;87;20985;-83
2022/04/12 05:30:16;;;;;;;2.55;2.00;;;;;;;2.51;68.89;96895.64;1646978;87;20991;-83
2022/04/12 05:32:42;;;;;;;2.87;2.30;;;;;;;2.59;68.96;96897.13;1619805;87;21054;-83
2022/04/12 05:35:09;;;;;;;3.70;2.33;;;;;;;2.65;69.04;96901.33;1617279;88;21361;-84
2022/04/12 05:37:51;;;;;;;2.75;2.40;;;;;;;2.73;69.25;96901.19;1657295;87;21409;-83
2022/04/12 05:40:18;;;;;;;3.33;2.52;;;;;;;2.80;69.38;96899.79;1657584;86;20959;-83
2022/04/12 05:42:44;;;;;;;3.00;1.80;;;;;;;2.88;69.49;96897.42;1657689;87;21006;-83
2022/04/12 05:45:11;;;;;;;3.45;2.08;;;;;;;2.97;69.33;96901.37;1657561;87;20954;-83
2022/04/12 05:47:52;;;;;;;3.60;2.20;;;;;;;3.10;69.46;96902.50;1650628;87;21413;-82
2022/04/12 05:50:22;;;;;;;4.22;2.00;;;;;;;3.21;69.76;96906.75;1647222;87;21027;-83
2022/04/12 05:52:48;;;;;;;2.80;2.02;;;;;;;3.31;69.76;96897.38;1647314;87;21041;-83
2022/04/12 05:55:17;;;;;;;3.30;2.20;;;;;;;3.40;69.66;96896.62;1605903;89;21052;-83
2022/04/12 05:58:03;;;;;;;3.27;2.10;;;;;;;3.50;69.65;96897.98;1644948;87;21009;-83
2022/04/12 06:00:32;;;;;;;1.95;1.82;;;;;;;3.59;69.53;96898.05;1644875;87;21090;-83
2022/04/12 06:02:58;;;;;;;2.98;2.02;;;;;;;3.73;69.62;96896.08;1645004;87;21039;-83
2022/04/12 06:05:28;;;;;;;3.95;2.17;;;;;;;3.84;69.48;96901.16;1644982;87;20995;-83
2022/04/12 06:07:53;;;;;;;3.45;1.80;;;;;;;3.99;69.32;96900.36;1644898;87;21007;-83
2022/04/12 06:10:20;;;;;;;4.08;2.02;;;;;;;4.13;68.56;96905.16;1644942;87;21002;-82
2022/04/12 06:12:47;;;;;;;2.15;1.75;;;;;;;4.27;67.83;96907.87;1641322;87;21075;-83
2022/04/12 06:15:13;;;;;;;2.00;1.70;;;;;;;4.40;66.99;96912.32;1623348;87;21410;-82
2022/04/12 06:17:39;;;;;;;4.20;1.72;;;;;;;4.55;66.93;96910.98;1637838;87;21006;-83
2022/04/12 06:20:11;;;;;;;3.95;1.77;;;;;;;4.69;66.78;96915.77;1644793;87;21086;-82
2022/04/12 06:22:38;;;;;;;3.42;1.98;;;;;;;4.85;66.36;96911.88;1644810;87;21400;-83
2022/04/12 06:25:05;;;;;;;4.17;2.30;;;;;;;5.00;64.88;96916.50;1644946;87;21003;-83
2022/04/12 06:27:45;;;;;;;2.65;2.02;;;;;;;5.18;65.02;96920.99;1644956;87;21102;-83
2022/04/12 06:30:15;;;;;;;2.75;1.92;;;;;;;5.35;63.98;96921.61;1631746;87;21450;-83
2022/04/12 06:32:41;;;;;;;3.45;2.27;;;;;;;5.53;63.17;96921.73;1618014;87;21002;-82
2022/04/12 06:35:09;;;;;;;3.50;1.95;;;;;;;5.71;62.60;96925.27;1614038;89;21344;-83
2022/04/12 06:37:35;;;;;;;2.30;2.10;;;;;;;5.89;61.89;96918.91;1620496;87;21474;-83
2022/04/12 06:40:01;;;;;;;3.35;1.95;;;;;;;6.07;61.44;96924.19;1645123;87;21078;-83
2022/04/12 06:42:27;;;;;;;3.98;2.47;;;;;;;6.28;61.44;96919.63;1634823;87;21051;-83
2022/04/12 06:44:53;;;;;;;3.25;1.80;;;;;;;6.46;60.26;96920.98;1645054;87;20994;-83
2022/04/12 06:47:19;;;;;;;3.10;1.90;;;;;;;6.65;59.98;96918.78;1644783;87;21030;-83
2022/04/12 06:49:49;;;;;;;2.12;1.87;;;;;;;6.80;59.24;96929.78;1621339;87;21036;-82
2022/04/12 06:52:20;;;;;;;3.45;1.92;;;;;;;6.96;58.87;96925.27;1618503;87;21359;-83
2022/04/12 06:54:46;;;;;;;3.65;2.75;;;;;;;7.14;58.23;96921.41;1630282;87;21060;-83
2022/04/12 06:57:12;;;;;;;4.55;2.12;;;;;;;7.30;58.15;96928.50;1621401;87;21428;-83
2022/04/12 06:59:38;;;;;;;4.15;2.10;;;;;;;7.44;56.55;96929.28;1618563;87;20992;-83
2022/04/12 07:02:04;;;;;;;4.12;2.15;;;;;;;7.57;56.48;96929.72;1619685;87;20999;-83
2022/04/12 07:04:30;;;;;;;2.98;2.60;;;;;;;7.68;55.40;96927.39;1623583;87;21059;-83
2022/04/12 07:06:56;;;;;;;3.55;2.95;;;;;;;7.76;55.08;96928.24;1618691;87;21014;-83
2022/04/12 07:09:24;;;;;;;2.47;1.52;;;;;;;7.86;54.59;96922.98;1620057;87;21421;-83
2022/04/12 07:11:50;;;;;;;4.05;2.08;;;;;;;7.97;54.32;96927.08;1617193;87;21458;-83
2022/04/12 07:14:16;;;;;;;5.05;2.20;;;;;;;8.07;54.20;96923.44;1617402;89;21050;-82
2022/04/12 07:16:42;;;;;;;2.75;2.05;;;;;;;8.16;53.78;96930.78;1625369;87;20955;-82
2022/04/12 07:19:08;;;;;;;3.02;1.80;;;;;;;8.23;52.23;96926.61;1642208;86;21066;-82
2022/04/12 07:21:34;;;;;;;4.28;2.12;;;;;;;8.37;52.29;96928.66;1640996;87;21038;-82
2022/04/12 07:24:00;;;;;;;2.50;1.75;;;;;;;8.37;52.29;96928.66;1634554;87;21095;-82
2022/04/12 07:26:27;;;;;;;2.65;1.75;;;;;;;8.46;51.31;96935.16;1617325;89;21418;-82
2022/04/12 07:28:53;;;;;;;3.05;2.10;;;;;;;8.55;51.73;96935.53;1617276;87;21039;-82
2022/04/12 07:31:18;;;;;;;3.33;2.00;;;;;;;8.64;51.31;96940.61;1624778;87;20970;-82
2022/04/12 07:33:45;;;;;;;3.15;1.87;;;;;;;8.69;50.57;96934.95;1621828;87;20982;-82
2022/04/12 07:36:11;;;;;;;2.95;1.30;;;;;;;8.73;50.29;96946.13;1617988;87;21018;-82
2022/04/12 07:38:36;;;;;;;2.47;1.37;;;;;;;8.77;49.95;96937.55;1624388;87;20967;-82
2022/04/12 07:41:04;;;;;;;2.55;1.72;;;;;;;8.81;49.48;96940.67;1644863;87;20963;-82
2022/04/12 07:43:30;;;;;;;3.00;1.90;;;;;;;8.85;49.89;96937.59;1623951;87;21085;-82
2022/04/12 07:45:57;;;;;;;2.77;2.10;;;;;;;8.94;48.68;96944.90;1644780;87;21015;-82
2022/04/12 07:48:23;;;;;;;2.00;1.80;;;;;;;8.91;49.12;96943.44;1644560;87;21046;-82
2022/04/12 07:50:49;;;;;;;6.33;2.22;;;;;;;8.91;48.67;96952.51;1642060;87;21014;-82
2022/04/12 07:53:15;;;;;;;2.98;1.80;;;;;;;8.95;47.83;96957.73;1617053;87;21445;-82
2022/04/12 07:55:41;;;;;;;2.83;1.90;;;;;;;9.03;46.66;96964.70;1617018;87;21086;-82
2022/04/12 07:58:07;;;;;;;2.72;1.90;;;;;;;9.00;46.67;96968.42;1617354;89;21346;-82
2022/04/12 08:00:33;;;;;;;3.95;2.10;;;;;;;8.99;45.77;96966.80;1617036;88;21027;-82
2022/04/12 08:02:59;;;;;;;4.10;2.52;;;;;;;9.01;45.48;96976.53;1639599;87;21282;-83
2022/04/12 08:05:24;;;;;;;2.60;1.50;;;;;;;8.98;45.46;96972.15;1619022;87;20963;-82
2022/04/12 08:07:50;;;;;;;3.52;1.67;;;;;;;9.03;44.01;96975.08;1617287;88;21023;-82
2022/04/12 08:10:19;;;;;;;2.67;1.55;;;;;;;9.00;44.92;96976.20;1619352;87;21062;-82
2022/04/12 08:12:46;;;;;;;3.00;1.95;;;;;;;9.08;44.65;96981.07;1638396;87;21086;-82
2022/04/12 08:15:14;;;;;;;4.40;1.90;;;;;;;9.05;43.94;96980.09;1644748;87;21007;-82
2022/04/12 08:17:40;;;;;;;3.95;1.95;;;;;;;9.07;44.11;96978.16;1636935;87;21307;-82
2022/04/12 08:20:07;;;;;;;3.25;1.65;;;;;;;9.14;44.15;96971.39;1616914;87;21389;-82
2022/04/12 08:22:33;;;;;;;2.65;1.87;;;;;;;9.23;44.81;96972.53;1617238;87;21010;-82
2022/04/12 08:24:59;;;;;;;2.85;2.00;;;;;;;9.35;45.09;96969.16;1622641;87;21085;-82
2022/04/12 08:27:26;;;;;;;2.72;1.90;;;;;;;9.47;45.20;96969.19;1617741;87;21006;-82
2022/04/12 08:29:52;;;;;;;3.02;1.90;;;;;;;9.55;44.33;96971.77;1609142;87;21035;-82
2022/04/12 08:32:19;;;;;;;4.72;2.15;;;;;;;9.59;43.97;96973.55;1638381;87;21393;-82
2022/04/12 08:34:45;;;;;;;3.12;2.00;;;;;;;9.53;43.08;96974.20;1623541;87;21019;-82
2022/04/12 08:37:12;;;;;;;3.22;2.30;;;;;;;9.55;43.92;96972.26;1618523;87;21377;-81
2022/04/12 08:39:38;;;;;;;6.30;2.27;;;;;;;9.58;44.24;96968.85;1634416;87;20971;-82
2022/04/12 08:42:04;;;;;;;3.30;2.27;;;;;;;9.69;43.92;96972.11;1617774;87;21105;-82
2022/04/12 08:44:32;;;;;;;3.30;2.00;;;;;;;9.77;45.60;96974.73;1618124;87;21010;-82
2022/04/12 08:46:58;;;;;;;4.53;3.17;;;;;;;9.85;44.34;96970.33;1620711;87;21414;-82
2022/04/12 08:49:24;;;;;;;5.12;3.10;;;;;;;9.93;43.93;96977.32;1627218;87;20997;-82
2022/04/12 08:51:50;;;;;;;4.17;3.00;;;;;;;9.95;43.26;96973.27;1629785;87;21057;-82
2022/04/12 08:54:22;;;;;;;6.28;2.95;;;;;;;9.96;42.41;96973.09;1631171;87;21492;-82
2022/04/12 08:56:49;;;;;;;4.40;3.10;;;;;;;9.98;44.64;96972.94;1631461;87;21060;-82
2022/04/12 08:59:16;;;;;;;5.72;3.12;;;;;;;10.09;44.25;96969.52;1627110;87;21045;-82
2022/04/12 09:01:42;;;;;;;5.95;3.25;;;;;;;10.12;42.40;96967.08;1630966;87;20962;-82
2022/04/12 09:04:10;;;;;;;5.97;3.47;;;;;;;10.01;43.75;96965.62;1637210;87;21051;-82
2022/04/12 09:06:56;;;;;;;4.70;3.02;;;;;;;10.06;43.37;96966.42;1627072;86;20979;-81
2022/04/12 09:09:28;;;;;;;5.20;3.10;;;;;;;10.07;42.54;96964.14;1632433;87;21096;-82
2022/04/12 09:12:02;;;;;;;;;;;;;;;10.10;43.30;96964.66;1635077;86;21433;-82
2022/04/12 09:14:54;;;;;;;4.62;3.00;;;;;;;10.19;43.80;96961.05;1627162;87;20198;-81
2022/04/12 09:17:29;;;;;;;5.58;3.40;;;;;;;10.27;44.35;96964.66;1641219;87;21412;-83
2022/04/12 09:19:55;;;;;;;5.05;3.30;;;;;;;10.23;43.24;96962.36;1631984;87;21420;-82
2022/04/12 09:22:23;;;;;;;4.90;3.40;;;;;;;10.28;42.73;96963.68;1627273;87;20984;-82
2022/04/12 09:24:58;;;;;;;6.40;3.92;;;;;;;10.33;41.63;96960.09;1626327;87;21069;-82
2022/04/12 09:27:36;;;;;;;5.72;3.50;;;;;;;10.29;40.66;96969.20;1642682;87;21076;-82
2022/04/12 09:30:06;;;;;;;5.12;3.70;;;;;;;10.25;43.27;96961.39;1643577;87;21020;-82
2022/04/12 09:32:38;;;;;;;3.35;2.20;;;;;;;10.32;42.16;96963.66;1644708;87;20988;-82
2022/04/12 09:35:06;;;;;;;3.37;2.65;;;;;;;10.32;40.26;96961.06;1627498;88;21165;-82
2022/04/12 09:37:34;;;;;;;3.80;2.60;;;;;;;10.31;40.76;96953.77;1628028;87;21026;-82
2022/04/12 09:40:05;;;;;;;6.03;3.02;;;;;;;10.32;41.17;96949.38;1633840;87;21014;-82
2022/04/12 09:42:54;;;;;;;4.85;2.80;;;;;;;10.37;38.55;96949.68;1654350;87;21042;-82
2022/04/12 09:45:27;;;;;;;8.80;4.47;;;;;;;10.30;40.49;96946.14;1629712;88;21359;-82
2022/04/12 09:48:02;;;;;;;5.45;4.22;;;;;;;10.44;40.74;96942.37;1646809;87;21131;-82
2022/04/12 09:50:29;;;;;;;4.40;3.22;;;;;;;10.52;40.60;96948.02;1643728;87;21119;-82
2022/04/12 09:53:01;;;;;;;5.62;3.12;;;;;;;10.54;40.26;96947.36;1651403;87;20979;-82
2022/04/12 09:55:36;;;;;;;4.35;2.83;;;;;;;10.60;41.74;96940.70;1626991;87;21039;-81
2022/04/12 09:58:05;;;;;;;3.20;2.98;;;;;;;10.72;41.99;96944.03;1623249;88;21357;-82
2022/04/12 10:00:31;;;;;;;3.80;2.83;;;;;;;10.85;42.41;96934.89;1623300;87;21058;-82
2022/04/12 10:03:08;;;;;;;2.92;2.52;;;;;;;10.94;41.63;96931.29;1629091;87;21389;-82
2022/04/12 10:05:34;;;;;;;6.15;3.00;;;;;;;10.98;42.34;96931.27;1654832;87;21010;-82
2022/04/12 10:08:02;;;;;;;4.37;3.00;;;;;;;11.00;40.28;96934.01;1642756;87;20990;-81
2022/04/12 10:10:30;;;;;;;4.92;2.83;;;;;;;11.00;39.65;96944.90;1626059;87;21120;-82
2022/04/12 10:12:58;;;;;;;5.15;3.17;;;;;;;10.91;39.18;96927.25;1652109;87;21039;-82
2022/04/12 10:15:26;;;;;;;3.83;2.42;;;;;;;10.93;38.77;96929.18;1652389;87;21404;-82
2022/04/12 10:17:53;;;;;;;4.78;3.30;;;;;;;10.99;38.78;96925.08;1634049;87;22077;-82
2022/04/12 10:20:18;;;;;;;3.65;2.50;;;;;;;11.03;40.62;96920.66;1632636;87;21022;-82
2022/04/12 10:22:46;;;;;;;4.75;3.00;;;;;;;11.15;39.06;96926.29;1640616;87;20967;-81
2022/04/12 10:25:23;;;;;;;4.53;3.90;;;;;;;11.16;40.06;96930.51;1626966;87;20983;-82
2022/04/12 10:27:52;;;;;;;5.58;3.45;;;;;;;11.18;39.19;96923.34;1626245;88;21090;-82
2022/04/12 10:30:22;;;;;;;5.55;3.65;;;;;;;11.21;39.44;96920.88;1626478;87;21472;-82
2022/04/12 10:33:07;;;;;;;4.05;3.02;;;;;;;11.21;38.47;96923.48;1651387;87;21020;-80
2022/04/12 10:35:48;;;;;;;3.62;3.30;;;;;;;11.16;38.92;96920.10;1654629;87;21345;-80
2022/04/12 10:38:16;;;;;;;4.00;3.37;;;;;;;11.21;39.88;96914.37;1654765;87;21458;-80
2022/04/12 10:40:44;;;;;;;5.40;3.50;;;;;;;11.31;40.83;96921.48;1654644;87;21113;-80
2022/04/12 10:43:12;;;;;;;3.65;2.80;;;;;;;11.48;40.72;96919.57;1654392;84;21108;-80
2022/04/12 10:45:47;;;;;;;5.78;2.98;;;;;;;11.54;37.54;96918.37;1654649;87;21029;-80
2022/04/12 10:48:22;;;;;;;5.28;3.52;;;;;;;11.52;38.77;96913.03;1649830;87;21405;-80
2022/04/12 10:50:51;;;;;;;4.30;3.65;;;;;;;11.47;38.28;96906.24;1640777;87;21142;-80
2022/04/12 10:53:42;;;;;;;4.25;3.75;;;;;;;11.48;38.59;96902.16;1640532;87;21346;-79
2022/04/12 10:56:15;;;;;;;6.10;4.20;;;;;;;11.56;40.00;96903.91;1640233;87;21846;-81
2022/04/12 10:58:41;;;;;;;4.75;3.92;;;;;;;11.58;39.78;96896.23;1640762;87;21409;-81
2022/04/12 11:01:13;;;;;;;5.05;3.47;;;;;;;11.58;39.59;96887.12;1622849;87;21042;-81
2022/04/12 11:03:48;;;;;;;5.45;4.03;;;;;;;11.64;40.56;96891.63;1614965;87;20991;-82
2022/04/12 11:06:23;;;;;;;6.03;3.85;;;;;;;11.75;39.83;96896.10;1623790;87;21012;-81
2022/04/12 11:08:51;;;;;;;7.10;3.50;;;;;;;11.78;39.83;96891.84;1638913;87;21115;-81
2022/04/12 11:11:26;;;;;;;7.08;4.20;;;;;;;11.82;39.26;96887.42;1613119;87;21066;-81
2022/04/12 11:13:52;;;;;;;3.75;2.72;;;;;;;11.79;38.40;96892.19;1607966;89;21007;-81
2022/04/12 11:16:19;;;;;;;4.58;3.85;;;;;;;11.76;36.70;96896.41;1611198;87;21325;-81
2022/04/12 11:18:55;;;;;;;6.28;3.42;;;;;;;11.65;37.33;96893.23;1591382;90;20995;-81
2022/04/12 11:21:23;;;;;;;5.30;3.33;;;;;;;11.71;38.24;96892.55;1617197;87;21035;-82
2022/04/12 11:23:56;;;;;;;4.83;3.60;;;;;;;11.84;39.51;96886.75;1613624;87;21366;-81
2022/04/12 11:26:49;;;;;;;7.58;3.17;;;;;;;11.98;39.83;96888.58;1614856;87;21457;-81
2022/04/12 11:29:20;;;;;;;9.18;3.80;;;;;;;12.10;39.82;96881.63;1614314;87;21071;-81
2022/04/12 11:31:51;;;;;;;5.25;3.35;;;;;;;12.16;38.78;96879.11;1621346;87;21071;-81
2022/04/12 11:34:18;;;;;;;5.25;3.25;;;;;;;12.24;38.32;96879.53;1614050;87;20987;-81
2022/04/12 11:36:52;;;;;;;5.28;3.62;;;;;;;12.23;38.54;96876.61;1617301;87;20989;-84
2022/04/12 11:39:26;;;;;;;4.50;3.02;;;;;;;12.23;38.97;96872.21;1611114;87;21064;-83
2022/04/12 11:41:57;;;;;;;5.42;3.60;;;;;;;12.29;39.56;96879.80;1596234;88;21106;-83
2022/04/12 11:44:23;;;;;;;6.20;3.33;;;;;;;12.26;38.52;96880.16;1596534;87;20991;-84